Time;durP1;ratioP1;P1;durP2;ratioP2;P2;SDS_P1;SDS_P2;PMS_P1;PMS_P2;Temp;Humidity;BMP_temperature;BMP_pressure;BME280_temperature;BME280_humidity;BME280_pressure;Samples;Min_cycle;Max_cycle;Signal;HPM_P1;HPM_P2
2022/12/25 05:08:10;;;;;;;68.10;26.87;;;2.10;99.90;;;;;;5120054;27;20285;-79
2022/12/25 05:10:40;;;;;;;33.93;17.30;;;2.60;99.90;;;;;;5124952;27;20208;-76
2022/12/25 05:13:09;;;;;;;34.03;17.70;;;2.50;99.90;;;;;;5108977;28;20188;-71
2022/12/25 05:15:40;;;;;;;36.67;19.43;;;2.60;99.90;;;;;;5109440;28;20220;-71
2022/12/25 05:18:09;;;;;;;41.70;20.97;;;2.80;99.90;;;;;;5109273;28;20187;-71
2022/12/25 05:20:38;;;;;;;38.67;21.37;;;3.00;99.90;;;;;;5109322;28;20654;-71
2022/12/25 05:23:10;;;;;;;37.13;20.33;;;3.20;99.90;;;;;;5109057;28;20196;-71
2022/12/25 05:25:40;;;;;;;37.83;21.30;;;3.40;99.90;;;;;;5109285;28;20196;-71
2022/12/25 05:28:09;;;;;;;38.87;22.27;;;3.50;99.90;;;;;;5109318;28;20228;-80
2022/12/25 05:30:38;;;;;;;37.23;20.50;;;3.60;99.90;;;;;;5109223;28;20184;-71
2022/12/25 05:33:07;;;;;;;41.57;22.20;;;3.60;99.90;;;;;;5109165;28;20532;-71
2022/12/25 05:35:37;;;;;;;43.07;22.70;;;3.60;99.90;;;;;;5109243;28;20197;-71
2022/12/25 05:38:08;;;;;;;44.97;24.50;;;3.60;99.90;;;;;;5109021;28;20200;-70
2022/12/25 05:40:39;;;;;;;45.40;24.43;;;3.60;99.90;;;;;;5108999;28;20296;-71
2022/12/25 05:43:08;;;;;;;52.37;30.97;;;3.50;99.90;;;;;;5108940;28;20190;-70
2022/12/25 05:45:37;;;;;;;67.97;38.73;;;3.50;99.90;;;;;;5108885;28;20296;-70
2022/12/25 05:48:07;;;;;;;58.30;32.63;;;3.30;99.90;;;;;;5108845;28;20230;-78
2022/12/25 05:50:37;;;;;;;50.60;26.60;;;3.30;99.90;;;;;;5108796;28;20223;-71
2022/12/25 05:53:08;;;;;;;57.20;26.80;;;3.10;99.90;;;;;;5108667;28;20249;-82
2022/12/25 05:55:37;;;;;;;57.80;27.30;;;3.10;99.90;;;;;;5108683;28;20188;-72
2022/12/25 05:58:07;;;;;;;44.33;23.33;;;2.80;99.90;;;;;;5108739;28;20201;-79
2022/12/25 06:00:37;;;;;;;54.17;26.73;;;2.80;99.90;;;;;;5108520;28;20250;-72
2022/12/25 06:03:06;;;;;;;47.67;26.50;;;2.70;99.90;;;;;;5108636;28;20577;-71
2022/12/25 06:05:37;;;;;;;44.10;22.77;;;2.80;99.90;;;;;;5108400;28;20188;-71
2022/12/25 06:08:08;;;;;;;45.60;24.67;;;2.80;99.90;;;;;;5108553;28;20215;-82
2022/12/25 06:10:37;;;;;;;50.83;23.57;;;2.70;99.90;;;;;;5108655;28;20200;-71
2022/12/25 06:13:06;;;;;;;47.43;23.90;;;2.70;99.90;;;;;;5107135;28;20558;-72
2022/12/25 06:15:39;;;;;;;66.07;30.73;;;2.70;99.90;;;;;;5108429;28;20196;-71
2022/12/25 06:18:08;;;;;;;73.27;37.87;;;2.70;99.90;;;;;;5101908;28;20188;-78
2022/12/25 06:20:40;;;;;;;75.93;41.03;;;2.70;99.90;;;;;;5094682;28;20575;-71
2022/12/25 06:23:11;;;;;;;76.13;39.00;;;2.60;99.90;;;;;;5094440;28;20192;-80
2022/12/25 06:25:40;;;;;;;89.63;45.53;;;2.70;99.90;;;;;;5094546;28;20188;-71
2022/12/25 06:28:09;;;;;;;78.60;36.63;;;2.50;99.90;;;;;;5094442;28;20215;-78
2022/12/25 06:30:38;;;;;;;76.87;35.77;;;2.30;99.90;;;;;;5093100;28;20627;-80
2022/12/25 06:33:07;;;;;;;75.10;33.57;;;2.20;99.90;;;;;;5094378;28;20212;-71
2022/12/25 06:35:39;;;;;;;63.30;28.63;;;2.20;99.90;;;;;;5094125;28;20194;-73
2022/12/25 06:38:08;;;;;;;57.80;26.27;;;2.30;99.90;;;;;;5094268;28;20599;-72
2022/12/25 06:40:38;;;;;;;70.30;25.53;;;2.30;99.90;;;;;;5094321;28;20193;-74
2022/12/25 06:43:09;;;;;;;54.07;24.93;;;2.10;99.90;;;;;;5094794;28;20249;-75
2022/12/25 06:45:38;;;;;;;57.60;22.63;;;1.80;99.90;;;;;;5094072;28;20275;-70
2022/12/25 06:48:07;;;;;;;44.50;19.57;;;1.60;99.90;;;;;;5094002;28;20265;-80
2022/12/25 06:50:36;;;;;;;69.53;19.87;;;1.50;99.90;;;;;;5094046;28;20188;-71
2022/12/25 06:53:05;;;;;;;55.70;23.83;;;1.60;99.90;;;;;;5094054;28;20796;-71
2022/12/25 06:55:34;;;;;;;48.40;21.07;;;1.50;99.90;;;;;;5093963;28;20654;-71
2022/12/25 06:58:05;;;;;;;51.53;23.03;;;1.50;99.90;;;;;;5093927;28;20208;-71
2022/12/25 07:00:33;;;;;;;53.70;23.83;;;1.50;99.90;;;;;;5096594;28;20283;-71
2022/12/25 07:03:02;;;;;;;56.40;23.97;;;1.60;99.90;;;;;;5097613;28;20188;-75
2022/12/25 07:05:31;;;;;;;55.33;22.57;;;1.60;99.90;;;;;;5096772;28;20206;-74
2022/12/25 07:08:01;;;;;;;54.87;23.90;;;1.70;99.90;;;;;;5093586;28;20258;-78
2022/12/25 07:10:30;;;;;;;54.90;23.63;;;1.70;99.90;;;;;;5093803;28;20216;-71
2022/12/25 07:12:59;;;;;;;51.43;23.00;;;1.80;99.90;;;;;;5093638;28;20275;-71
2022/12/25 07:15:29;;;;;;;60.77;23.63;;;1.70;99.90;;;;;;5093622;28;20188;-76
2022/12/25 07:17:58;;;;;;;50.53;23.80;;;1.80;99.90;;;;;;5093590;28;20199;-73
2022/12/25 07:20:28;;;;;;;46.07;20.53;;;1.80;99.90;;;;;;5093505;28;20228;-70
2022/12/25 07:22:57;;;;;;;43.50;22.17;;;1.80;99.90;;;;;;5093290;28;20200;-76
2022/12/25 07:25:26;;;;;;;39.50;21.13;;;1.80;99.90;;;;;;5093366;28;20184;-70
2022/12/25 07:27:59;;;;;;;45.97;20.67;;;1.90;99.90;;;;;;5093303;28;20228;-70
2022/12/25 07:30:30;;;;;;;33.53;19.00;;;2.00;99.90;;;;;;5092448;28;20565;-70
2022/12/25 07:32:59;;;;;;;39.00;18.47;;;2.00;99.90;;;;;;5093317;28;20196;-74
2022/12/25 07:35:28;;;;;;;40.23;19.47;;;2.00;99.90;;;;;;5092039;28;20208;-71
2022/12/25 07:37:57;;;;;;;41.77;21.00;;;2.00;99.90;;;;;;5092998;28;20361;-79
2022/12/25 07:40:25;;;;;;;43.93;21.07;;;2.10;99.90;;;;;;5093190;28;20207;-82
2022/12/25 07:42:54;;;;;;;42.03;21.80;;;2.00;99.90;;;;;;5093132;28;20192;-75
2022/12/25 07:45:24;;;;;;;51.73;22.53;;;2.10;99.90;;;;;;5093011;28;20218;-80
2022/12/25 07:47:54;;;;;;;46.53;22.67;;;2.20;99.90;;;;;;5092800;28;20649;-71
2022/12/25 07:50:25;;;;;;;55.13;24.93;;;2.20;99.90;;;;;;5092848;28;20188;-79
2022/12/25 07:52:55;;;;;;;49.87;23.63;;;2.30;99.90;;;;;;5092679;28;20196;-71
2022/12/25 07:55:24;;;;;;;60.80;27.67;;;2.20;99.90;;;;;;5092757;28;20200;-72
2022/12/25 07:57:53;;;;;;;62.63;34.43;;;2.30;99.90;;;;;;5092648;28;20241;-71
2022/12/25 08:00:28;;;;;;;66.17;35.53;;;2.40;99.90;;;;;;5092737;28;20242;-76
2022/12/25 08:02:59;;;;;;;58.87;33.27;;;2.40;99.90;;;;;;5092828;28;20191;-71
2022/12/25 08:05:28;;;;;;;79.03;40.20;;;2.50;99.90;;;;;;5092707;28;20270;-71
2022/12/25 08:07:57;;;;;;;61.83;38.63;;;2.50;99.90;;;;;;5092263;28;20227;-71
2022/12/25 08:10:26;;;;;;;58.60;34.13;;;2.30;99.90;;;;;;5092572;28;20242;-83
2022/12/25 08:12:56;;;;;;;51.30;28.87;;;2.30;99.90;;;;;;5092394;28;20192;-70
2022/12/25 08:15:25;;;;;;;48.57;27.93;;;2.20;99.90;;;;;;5092454;28;20204;-80
2022/12/25 08:17:54;;;;;;;54.90;29.23;;;2.20;99.90;;;;;;5092229;28;20206;-70
2022/12/25 08:20:24;;;;;;;63.30;32.67;;;2.20;99.90;;;;;;5092483;28;20250;-76
2022/12/25 08:22:53;;;;;;;65.50;35.37;;;2.20;99.90;;;;;;5090720;28;20693;-70
2022/12/25 08:25:22;;;;;;;78.07;43.90;;;2.20;99.90;;;;;;5090876;28;20204;-71
2022/12/25 08:27:51;;;;;;;78.97;44.00;;;2.10;99.90;;;;;;5092227;28;20297;-74
2022/12/25 08:30:20;;;;;;;83.87;45.73;;;2.00;99.90;;;;;;5090807;28;20651;-71
2022/12/25 08:32:50;;;;;;;74.30;41.53;;;1.90;99.90;;;;;;5091928;28;20188;-75
2022/12/25 08:35:19;;;;;;;77.03;42.97;;;1.80;99.90;;;;;;5092119;28;20283;-76
2022/12/25 08:37:49;;;;;;;85.13;45.83;;;1.70;99.90;;;;;;5092136;28;20271;-71
2022/12/25 08:40:18;;;;;;;88.87;48.87;;;1.70;99.90;;;;;;5091970;28;20224;-76
2022/12/25 08:42:47;;;;;;;90.90;49.57;;;1.70;99.90;;;;;;5091795;28;20196;-80
2022/12/25 08:45:17;;;;;;;111.10;54.57;;;1.90;99.90;;;;;;5092056;28;20241;-73
2022/12/25 08:47:45;;;;;;;106.87;55.40;;;2.10;99.90;;;;;;5092014;28;20197;-69
2022/12/25 08:50:14;;;;;;;138.93;65.33;;;2.20;99.90;;;;;;5092084;28;20196;-69
2022/12/25 08:52:43;;;;;;;158.60;75.40;;;2.30;99.90;;;;;;5092087;28;20246;-70
2022/12/25 08:55:14;;;;;;;249.10;98.33;;;2.30;99.90;;;;;;5091997;28;20205;-69
2022/12/25 08:57:43;;;;;;;325.37;123.53;;;2.30;99.90;;;;;;5091846;28;20204;-69
2022/12/25 09:00:13;;;;;;;208.87;90.23;;;2.30;99.90;;;;;;5091864;28;20236;-73
2022/12/25 09:02:42;;;;;;;137.20;71.73;;;2.30;99.90;;;;;;5091714;28;20254;-69
2022/12/25 09:05:11;;;;;;;167.13;75.23;;;2.30;99.90;;;;;;5092132;28;20561;-91
2022/12/25 09:07:40;;;;;;;328.47;131.80;;;2.30;99.90;;;;;;5091516;28;20235;-80
2022/12/25 09:10:10;;;;;;;131.87;62.87;;;2.30;99.90;;;;;;5090466;28;20224;-86
2022/12/25 09:12:40;;;;;;;127.63;62.13;;;2.30;99.90;;;;;;5091848;28;20547;-80
2022/12/25 09:15:10;;;;;;;114.57;59.13;;;2.20;99.90;;;;;;5092360;28;20665;-76
2022/12/25 09:17:38;;;;;;;142.50;68.13;;;2.10;99.90;;;;;;5092354;28;20221;-72
2022/12/25 09:20:08;;;;;;;128.27;62.17;;;2.30;99.90;;;;;;5091566;28;20217;-69
2022/12/25 09:22:37;;;;;;;133.10;67.13;;;2.30;99.90;;;;;;5091639;28;20215;-71
2022/12/25 09:25:06;;;;;;;104.07;54.67;;;2.40;99.90;;;;;;5091361;28;20200;-70
2022/12/25 09:27:35;;;;;;;108.80;56.43;;;2.50;99.90;;;;;;5091354;28;20208;-80
2022/12/25 09:30:07;;;;;;;94.97;52.77;;;2.50;99.90;;;;;;5091291;28;20571;-70
2022/12/25 09:32:36;;;;;;;83.97;46.80;;;2.50;99.90;;;;;;5091435;28;20208;-72
2022/12/25 09:35:05;;;;;;;94.17;49.77;;;2.50;99.90;;;;;;5091468;28;20778;-70
2022/12/25 09:37:34;;;;;;;149.60;73.53;;;2.50;99.90;;;;;;5072697;28;20301;-77
2022/12/25 09:40:03;;;;;;;147.33;69.13;;;2.50;99.90;;;;;;5091292;28;20204;-70
2022/12/25 09:42:33;;;;;;;94.57;51.43;;;2.50;99.90;;;;;;5091284;28;20234;-70
2022/12/25 09:45:10;;;;;;;99.73;55.17;;;2.40;99.90;;;;;;5091424;28;20269;-71
2022/12/25 09:47:42;;;;;;;77.30;44.13;;;2.40;99.90;;;;;;5091254;28;20207;-75
2022/12/25 09:50:15;;;;;;;84.30;45.47;;;2.30;99.90;;;;;;5091208;28;20227;-69
2022/12/25 09:52:50;;;;;;;83.90;46.03;;;2.40;99.90;;;;;;5090383;28;20196;-80
2022/12/25 09:55:20;;;;;;;129.77;66.23;;;2.40;99.90;;;;;;5095200;28;20229;-70
2022/12/25 09:57:52;;;;;;;172.27;87.37;;;2.50;99.90;;;;;;5095064;28;20200;-74
2022/12/25 10:00:24;;;;;;;130.60;74.50;;;2.70;99.90;;;;;;5095027;28;20196;-70
2022/12/25 10:03:10;;;;;;;207.27;106.70;;;2.70;99.90;;;;;;5094888;28;20220;-78
2022/12/25 10:05:59;;;;;;;181.43;104.17;;;2.80;99.90;;;;;;5094689;28;20223;-76
2022/12/25 10:08:46;;;;;;;171.17;87.57;;;2.90;99.90;;;;;;5095167;28;20189;-78
2022/12/25 10:11:32;;;;;;;187.60;98.90;;;2.90;99.90;;;;;;5095714;28;20261;-75
2022/12/25 10:14:16;;;;;;;286.03;142.87;;;3.00;99.90;;;;;;5095040;28;20210;-70
2022/12/25 10:16:55;;;;;;;166.43;93.63;;;3.00;99.90;;;;;;5093890;28;20207;-82
2022/12/25 10:19:35;;;;;;;300.60;150.13;;;3.10;99.90;;;;;;5093475;28;20210;-71
2022/12/25 10:22:10;;;;;;;331.23;163.23;;;3.10;99.90;;;;;;5094510;28;20197;-70
2022/12/25 10:24:44;;;;;;;228.93;121.10;;;3.10;99.90;;;;;;5094308;28;20192;-71
2022/12/25 10:27:18;;;;;;;275.73;136.87;;;3.10;99.90;;;;;;5094447;28;20277;-71
2022/12/25 10:29:53;;;;;;;305.80;151.93;;;3.10;99.90;;;;;;5094321;28;20216;-71
2022/12/25 10:32:23;;;;;;;241.57;125.80;;;3.10;99.90;;;;;;5093276;28;20956;-71
2022/12/25 10:34:52;;;;;;;179.90;101.30;;;3.20;99.90;;;;;;5094523;28;20205;-76
2022/12/25 10:37:21;;;;;;;169.30;101.37;;;3.30;99.90;;;;;;5094294;28;20200;-72
2022/12/25 10:39:50;;;;;;;149.80;86.83;;;3.40;99.90;;;;;;5094191;28;20239;-73
2022/12/25 10:42:29;;;;;;;146.57;81.57;;;3.50;99.90;;;;;;5094282;28;20223;-73
2022/12/25 10:45:00;;;;;;;157.53;90.03;;;3.50;99.90;;;;;;5094073;28;20675;-71
2022/12/25 10:47:33;;;;;;;191.77;106.20;;;3.60;99.90;;;;;;5094136;28;20194;-79
2022/12/25 10:50:09;;;;;;;183.77;105.10;;;3.70;99.90;;;;;;5094109;28;20227;-71
2022/12/25 10:52:51;;;;;;;210.90;117.20;;;3.80;99.90;;;;;;5092608;28;20578;-72
2022/12/25 10:55:20;;;;;;;192.73;104.97;;;3.80;99.90;;;;;;5094100;28;20734;-73
2022/12/25 10:57:56;;;;;;;143.97;86.70;;;3.90;99.90;;;;;;5093993;28;20185;-75
2022/12/25 11:00:27;;;;;;;150.30;85.77;;;3.80;99.90;;;;;;5093799;28;20198;-75
2022/12/25 11:02:58;;;;;;;156.23;90.87;;;3.80;99.90;;;;;;5093916;28;20198;-69
2022/12/25 11:05:30;;;;;;;158.00;97.23;;;3.70;99.90;;;;;;5094564;28;20297;-70
2022/12/25 11:08:00;;;;;;;175.13;101.27;;;3.70;99.90;;;;;;5093636;28;20311;-70
2022/12/25 11:10:32;;;;;;;169.77;94.73;;;3.80;99.90;;;;;;5093947;28;20233;-70
2022/12/25 11:13:02;;;;;;;150.43;81.83;;;3.70;99.90;;;;;;5093959;28;20249;-78
2022/12/25 11:15:36;;;;;;;156.53;83.50;;;3.60;99.90;;;;;;5093650;28;20201;-80
2022/12/25 11:18:19;;;;;;;168.20;97.07;;;3.60;99.90;;;;;;5093651;28;20616;-70
2022/12/25 11:20:52;;;;;;;178.13;101.23;;;3.70;99.90;;;;;;5093742;28;20271;-73
2022/12/25 11:23:24;;;;;;;200.53;109.37;;;3.80;99.90;;;;;;5093731;28;20228;-76
2022/12/25 11:25:57;;;;;;;202.27;114.20;;;3.70;99.90;;;;;;5093625;28;20198;-80
2022/12/25 11:28:27;;;;;;;225.37;122.23;;;3.70;99.90;;;;;;5093365;28;20205;-71
2022/12/25 11:31:00;;;;;;;231.83;124.17;;;3.60;99.90;;;;;;5093166;28;20245;-72
2022/12/25 11:33:35;;;;;;;286.47;151.13;;;3.70;99.90;;;;;;5091895;28;20751;-70
2022/12/25 11:36:13;;;;;;;190.63;104.80;;;3.80;99.90;;;;;;5093091;28;20192;-70
2022/12/25 11:38:42;;;;;;;177.50;96.07;;;4.00;99.90;;;;;;5093096;28;20203;-71
2022/12/25 11:41:13;;;;;;;182.57;96.20;;;4.00;99.90;;;;;;5093096;28;20239;-71
2022/12/25 11:43:47;;;;;;;186.50;98.70;;;4.10;99.90;;;;;;5093288;28;20259;-84
2022/12/25 11:46:21;;;;;;;176.03;94.70;;;4.10;99.90;;;;;;5093592;28;20193;-77
2022/12/25 11:48:55;;;;;;;199.33;109.33;;;4.00;99.90;;;;;;5093515;28;20189;-81
2022/12/25 11:51:28;;;;;;;178.93;101.67;;;4.00;99.90;;;;;;5092734;28;20308;-70
2022/12/25 11:54:02;;;;;;;185.57;98.03;;;4.00;99.90;;;;;;5092946;28;20220;-82
2022/12/25 11:56:31;;;;;;;188.43;99.17;;;4.10;99.90;;;;;;5092965;28;20212;-83
2022/12/25 11:59:03;;;;;;;194.80;104.00;;;4.10;99.90;;;;;;5092920;28;20690;-86
2022/12/25 12:01:35;;;;;;;186.60;102.73;;;4.10;99.90;;;;;;5092969;28;20216;-74
2022/12/25 12:04:12;;;;;;;204.80;105.43;;;4.10;99.90;;;;;;5093005;28;20202;-85
2022/12/25 12:06:49;;;;;;;210.40;108.80;;;4.10;99.90;;;;;;5092801;28;20236;-82
2022/12/25 12:09:30;;;;;;;221.80;109.87;;;4.20;99.90;;;;;;5093404;28;20264;-82
2022/12/25 12:12:06;;;;;;;241.23;122.83;;;4.20;99.90;;;;;;5092707;28;20194;-76
2022/12/25 12:14:45;;;;;;;192.27;103.83;;;4.20;99.90;;;;;;5093181;28;20548;-82
2022/12/25 12:17:16;;;;;;;194.67;105.03;;;4.20;99.90;;;;;;5092473;28;20685;-85
2022/12/25 12:19:47;;;;;;;195.83;104.97;;;4.00;99.90;;;;;;5092996;28;20201;-74
2022/12/25 12:22:20;;;;;;;177.27;98.27;;;4.00;99.90;;;;;;5091588;28;20191;-78
2022/12/25 12:24:56;;;;;;;194.33;101.23;;;3.90;99.90;;;;;;5092476;28;20210;-84
2022/12/25 12:27:37;;;;;;;201.50;103.67;;;3.90;99.90;;;;;;5092986;28;20705;-87
2022/12/25 12:30:08;;;;;;;201.43;109.87;;;4.10;99.90;;;;;;5092799;28;20356;-86
2022/12/25 12:32:40;;;;;;;289.43;139.17;;;4.20;99.90;;;;;;5092554;28;20191;-84
2022/12/25 12:35:17;;;;;;;381.43;153.10;;;4.20;99.90;;;;;;5092678;28;20207;-83
2022/12/25 12:37:50;;;;;;;361.97;149.97;;;4.20;99.90;;;;;;5092598;28;20528;-76
2022/12/25 12:40:33;;;;;;;387.10;165.43;;;4.20;99.90;;;;;;5092276;28;20692;-75
2022/12/25 12:43:02;;;;;;;250.67;112.97;;;4.20;99.90;;;;;;5092404;28;20671;-81
2022/12/25 12:45:34;;;;;;;219.70;107.77;;;4.30;99.90;;;;;;5090876;28;20670;-70
2022/12/25 12:48:15;;;;;;;208.50;103.27;;;4.20;99.90;;;;;;5092078;28;20198;-72
2022/12/25 12:50:46;;;;;;;284.83;130.97;;;4.10;99.90;;;;;;5090898;28;20240;-72
2022/12/25 12:53:29;;;;;;;341.93;158.30;;;4.10;99.90;;;;;;5092057;28;20197;-70
2022/12/25 12:56:08;;;;;;;234.27;120.20;;;4.20;99.90;;;;;;5091952;28;20244;-73
2022/12/25 12:58:43;;;;;;;187.23;104.50;;;4.20;99.90;;;;;;5091735;28;20205;-73
2022/12/25 13:01:32;;;;;;;188.30;99.43;;;4.30;99.90;;;;;;5091691;28;20197;-76
2022/12/25 13:04:20;;;;;;;206.97;109.20;;;4.30;99.90;;;;;;5091314;28;20202;-71
2022/12/25 13:06:56;;;;;;;229.97;112.37;;;4.30;99.90;;;;;;5091554;28;20321;-81
2022/12/25 13:09:36;;;;;;;321.03;150.77;;;4.30;99.90;;;;;;5091968;28;20565;-73
2022/12/25 13:12:07;;;;;;;430.93;235.73;;;4.30;99.90;;;;;;5091693;28;20213;-71
2022/12/25 13:14:37;;;;;;;532.87;284.20;;;4.40;99.90;;;;;;5091703;28;20197;-82
2022/12/25 13:17:08;;;;;;;547.37;297.07;;;4.40;99.90;;;;;;5091750;28;20185;-80
2022/12/25 13:19:38;;;;;;;289.70;150.67;;;4.50;99.90;;;;;;5091837;28;20197;-74
2022/12/25 13:22:21;;;;;;;224.97;117.30;;;4.40;99.90;;;;;;5093124;28;20275;-71
2022/12/25 13:24:56;;;;;;;224.37;116.77;;;4.20;99.90;;;;;;5092189;28;20195;-71
2022/12/25 13:27:28;;;;;;;221.10;115.90;;;4.20;99.90;;;;;;5091985;28;20246;-74
2022/12/25 13:29:57;;;;;;;256.27;131.60;;;4.20;99.90;;;;;;5096017;28;20201;-73
2022/12/25 13:32:28;;;;;;;263.10;136.47;;;4.30;99.90;;;;;;5096294;28;20234;-73
2022/12/25 13:34:58;;;;;;;239.80;121.80;;;4.40;99.90;;;;;;5096024;28;20294;-78
2022/12/25 13:37:31;;;;;;;225.03;113.10;;;4.40;99.90;;;;;;5096581;28;21060;-79
2022/12/25 13:40:01;;;;;;;198.87;106.70;;;4.40;99.90;;;;;;5096212;28;20204;-71
2022/12/25 13:42:34;;;;;;;205.33;106.40;;;4.30;99.90;;;;;;5095423;28;20212;-89
2022/12/25 13:45:06;;;;;;;189.70;104.87;;;4.20;99.90;;;;;;5095730;28;20217;-72
2022/12/25 13:47:37;;;;;;;177.13;96.67;;;4.20;99.90;;;;;;5094282;28;20690;-80
2022/12/25 13:50:15;;;;;;;207.93;106.47;;;4.20;99.90;;;;;;5095233;28;20255;-86
2022/12/25 13:52:45;;;;;;;282.30;141.53;;;4.30;99.90;;;;;;5095622;28;20201;-83
2022/12/25 13:55:17;;;;;;;286.03;142.53;;;4.30;99.90;;;;;;5095446;28;20194;-71
2022/12/25 13:57:51;;;;;;;227.17;115.53;;;4.40;99.90;;;;;;5095685;28;20209;-83
2022/12/25 14:00:22;;;;;;;243.33;126.00;;;4.30;99.90;;;;;;5095604;28;20205;-80
2022/12/25 14:02:51;;;;;;;242.70;127.20;;;4.20;99.90;;;;;;5095623;28;20220;-83
2022/12/25 14:05:26;;;;;;;296.10;146.37;;;4.20;99.90;;;;;;5095949;28;20276;-78
2022/12/25 14:07:58;;;;;;;270.03;144.80;;;4.20;99.90;;;;;;5096449;28;20221;-86
2022/12/25 14:10:30;;;;;;;296.67;152.23;;;4.10;99.90;;;;;;5095997;28;20262;-82
2022/12/25 14:13:08;;;;;;;292.63;152.20;;;4.10;99.90;;;;;;5097656;28;20202;-69
2022/12/25 14:15:39;;;;;;;287.83;151.63;;;4.20;99.90;;;;;;5097847;28;20220;-81
2022/12/25 14:18:14;;;;;;;316.17;162.13;;;4.30;99.90;;;;;;5097614;28;20223;-86
2022/12/25 14:20:57;;;;;;;362.83;185.40;;;4.40;99.90;;;;;;5096285;28;20206;-71
2022/12/25 14:23:32;;;;;;;339.73;172.93;;;4.40;99.90;;;;;;5095265;28;20195;-83
2022/12/25 14:26:02;;;;;;;289.97;152.90;;;4.50;99.90;;;;;;5093966;28;20190;-76
2022/12/25 14:28:33;;;;;;;275.90;142.73;;;4.60;99.90;;;;;;5095232;28;20293;-79
2022/12/25 14:31:03;;;;;;;280.23;146.33;;;4.60;99.90;;;;;;5095449;28;20218;-76
2022/12/25 14:33:38;;;;;;;229.37;125.70;;;4.50;99.90;;;;;;5095612;28;20203;-77
2022/12/25 14:36:07;;;;;;;210.80;108.37;;;4.60;99.90;;;;;;5094685;28;20188;-85
2022/12/25 14:38:40;;;;;;;222.93;119.50;;;4.60;99.90;;;;;;5094776;28;20325;-81
2022/12/25 14:41:32;;;;;;;211.97;107.50;;;4.50;99.90;;;;;;5094963;28;20679;-84
2022/12/25 14:44:03;;;;;;;171.13;89.00;;;4.40;99.90;;;;;;5095328;28;20202;-86
2022/12/25 14:46:33;;;;;;;186.67;92.87;;;4.40;99.90;;;;;;5094783;28;20193;-76
2022/12/25 14:49:05;;;;;;;202.47;104.07;;;4.20;99.90;;;;;;5094916;28;20288;-70
2022/12/25 14:51:38;;;;;;;197.53;104.50;;;4.20;99.90;;;;;;5094804;28;20222;-83
2022/12/25 14:54:19;;;;;;;184.30;99.10;;;4.10;99.90;;;;;;5094560;28;20194;-76
2022/12/25 14:56:49;;;;;;;227.93;115.40;;;4.10;99.90;;;;;;5094884;28;20230;-69
2022/12/25 14:59:20;;;;;;;225.10;114.50;;;4.10;99.90;;;;;;5126853;27;20596;-70
2022/12/25 15:01:53;;;;;;;216.10;110.80;;;4.20;99.90;;;;;;5094794;28;20194;-83
2022/12/25 15:04:23;;;;;;;227.27;110.03;;;4.30;99.90;;;;;;5094566;28;20278;-70
2022/12/25 15:06:56;;;;;;;218.73;112.43;;;4.40;99.90;;;;;;5093930;28;20275;-82
2022/12/25 15:09:28;;;;;;;296.60;145.43;;;4.40;99.90;;;;;;5094392;28;20194;-71
2022/12/25 15:11:58;;;;;;;240.17;118.80;;;4.50;99.90;;;;;;5094222;28;20227;-70
2022/12/25 15:14:28;;;;;;;192.17;98.47;;;4.40;99.90;;;;;;5093628;28;20254;-71
2022/12/25 15:17:00;;;;;;;204.50;99.97;;;4.30;99.90;;;;;;5093389;28;20249;-82
2022/12/25 15:19:33;;;;;;;215.20;109.97;;;4.30;99.90;;;;;;5093848;28;20194;-78
2022/12/25 15:22:05;;;;;;;211.83;121.40;;;4.30;99.90;;;;;;5093439;28;20243;-74
2022/12/25 15:24:36;;;;;;;193.43;98.87;;;4.40;99.90;;;;;;5093286;28;20301;-71
2022/12/25 15:27:12;;;;;;;208.83;108.53;;;4.40;99.90;;;;;;5093454;28;20213;-81
2022/12/25 15:29:41;;;;;;;212.90;105.43;;;4.50;99.90;;;;;;5093618;28;20668;-71
2022/12/25 15:32:30;;;;;;;152.53;79.27;;;4.40;99.90;;;;;;5093430;28;20242;-72
2022/12/25 15:34:59;;;;;;;139.37;74.23;;;4.40;99.90;;;;;;5093403;28;20667;-75
2022/12/25 15:37:28;;;;;;;147.20;76.07;;;4.30;99.90;;;;;;5094071;28;20214;-75
2022/12/25 15:39:58;;;;;;;160.53;82.60;;;4.40;99.90;;;;;;5093289;28;20193;-80
2022/12/25 15:42:27;;;;;;;183.07;82.90;;;4.40;99.90;;;;;;5093216;28;20247;-71
2022/12/25 15:44:56;;;;;;;184.33;90.47;;;4.40;99.90;;;;;;5092854;28;20202;-80
2022/12/25 15:47:25;;;;;;;192.37;97.60;;;4.40;99.90;;;;;;5092801;28;20210;-76
2022/12/25 15:49:54;;;;;;;257.33;130.63;;;4.40;99.90;;;;;;5092720;28;20216;-85
2022/12/25 15:52:23;;;;;;;232.30;112.73;;;4.40;99.90;;;;;;5092363;28;20217;-70
2022/12/25 15:54:53;;;;;;;221.43;107.70;;;4.50;99.90;;;;;;5092901;28;20206;-71
2022/12/25 15:57:25;;;;;;;201.03;97.40;;;4.50;99.90;;;;;;5093015;28;20253;-84
2022/12/25 15:59:54;;;;;;;229.57;113.60;;;4.60;99.90;;;;;;5093021;28;20814;-71
2022/12/25 16:02:23;;;;;;;222.77;107.83;;;4.60;99.90;;;;;;5093151;28;20193;-77
2022/12/25 16:04:53;;;;;;;208.37;99.53;;;4.60;99.90;;;;;;5092814;28;20579;-71
2022/12/25 16:07:24;;;;;;;206.53;99.37;;;4.60;99.90;;;;;;5092614;28;20241;-70
2022/12/25 16:09:53;;;;;;;178.00;88.97;;;4.60;99.90;;;;;;5092877;28;20249;-79
2022/12/25 16:12:23;;;;;;;196.53;95.17;;;4.50;99.90;;;;;;5092625;28;20225;-72
2022/12/25 16:14:52;;;;;;;334.80;152.17;;;4.50;99.90;;;;;;5092735;28;20199;-83
2022/12/25 16:17:21;;;;;;;268.60;129.23;;;4.60;99.90;;;;;;5092687;28;20275;-77
2022/12/25 16:19:50;;;;;;;260.23;131.13;;;4.60;99.90;;;;;;5092383;28;20610;-74
2022/12/25 16:22:21;;;;;;;288.80;148.33;;;4.70;99.90;;;;;;5092507;28;20195;-70
2022/12/25 16:24:50;;;;;;;257.73;132.80;;;4.80;99.90;;;;;;5092288;28;20202;-80
2022/12/25 16:27:19;;;;;;;228.73;118.87;;;4.80;99.90;;;;;;5092407;28;20254;-75
2022/12/25 16:29:50;;;;;;;218.27;114.17;;;4.80;99.90;;;;;;5092355;28;20563;-71
2022/12/25 16:32:18;;;;;;;211.20;100.83;;;4.80;99.90;;;;;;5092135;28;20229;-71
2022/12/25 16:34:49;;;;;;;231.37;108.70;;;4.80;99.90;;;;;;5092320;28;20203;-72
2022/12/25 16:37:18;;;;;;;256.13;111.67;;;4.80;99.90;;;;;;5092195;28;20204;-70
2022/12/25 16:39:47;;;;;;;236.70;109.60;;;4.70;99.90;;;;;;5092078;28;20278;-77
2022/12/25 16:42:16;;;;;;;262.10;112.73;;;4.70;99.90;;;;;;5092203;28;20973;-70
2022/12/25 16:44:45;;;;;;;227.57;100.97;;;4.70;99.90;;;;;;5092183;28;20202;-78
2022/12/25 16:47:15;;;;;;;212.43;97.07;;;4.70;99.90;;;;;;5092256;28;20287;-73
2022/12/25 16:49:44;;;;;;;194.13;92.13;;;4.70;99.90;;;;;;5091823;28;20738;-72
2022/12/25 16:52:13;;;;;;;216.43;98.27;;;4.70;99.90;;;;;;5091924;28;20220;-75
2022/12/25 16:54:45;;;;;;;182.60;84.60;;;4.70;99.90;;;;;;5091655;28;20598;-72
2022/12/25 16:57:14;;;;;;;229.20;112.10;;;4.70;99.90;;;;;;5092254;28;20202;-74
2022/12/25 16:59:43;;;;;;;185.47;87.37;;;4.70;99.90;;;;;;5089832;28;20210;-75
2022/12/25 17:02:17;;;;;;;147.23;71.90;;;4.60;99.90;;;;;;5091679;28;20209;-78
2022/12/25 17:04:46;;;;;;;153.50;72.80;;;4.60;99.90;;;;;;5091918;28;20282;-80
2022/12/25 17:07:16;;;;;;;153.00;72.07;;;4.50;99.90;;;;;;5091563;28;20241;-76
2022/12/25 17:09:48;;;;;;;159.77;71.57;;;4.50;99.90;;;;;;5091715;28;20217;-73
2022/12/25 17:12:17;;;;;;;142.80;67.37;;;4.50;99.90;;;;;;5091908;28;20206;-74
2022/12/25 17:14:46;;;;;;;155.43;66.80;;;4.50;99.90;;;;;;5091760;28;20191;-73
2022/12/25 17:17:16;;;;;;;181.07;74.60;;;4.50;99.90;;;;;;5091987;28;20706;-76
2022/12/25 17:19:45;;;;;;;163.53;70.77;;;4.50;99.90;;;;;;5091762;28;20209;-71
2022/12/25 17:22:14;;;;;;;176.97;72.93;;;4.50;99.90;;;;;;5091604;28;20565;-71
2022/12/25 17:24:43;;;;;;;151.13;64.80;;;4.40;99.90;;;;;;5091541;28;20892;-79
2022/12/25 17:27:11;;;;;;;162.57;65.53;;;4.30;99.90;;;;;;5091666;28;20631;-72
2022/12/25 17:29:42;;;;;;;172.33;69.13;;;4.40;99.90;;;;;;5091587;28;20204;-79
2022/12/25 17:32:12;;;;;;;150.23;62.23;;;4.40;99.90;;;;;;5091494;28;20202;-77
2022/12/25 17:34:42;;;;;;;137.73;60.00;;;4.40;99.90;;;;;;5091366;28;20245;-74
2022/12/25 17:37:11;;;;;;;152.93;67.33;;;4.40;99.90;;;;;;5091477;28;20200;-75
2022/12/25 17:39:40;;;;;;;155.37;70.03;;;4.40;99.90;;;;;;5091298;28;20569;-78
2022/12/25 17:42:09;;;;;;;147.87;60.07;;;4.40;99.90;;;;;;5091329;28;20199;-72
2022/12/25 17:44:37;;;;;;;143.23;58.03;;;4.40;99.90;;;;;;5091369;28;20294;-79
2022/12/25 17:47:06;;;;;;;135.90;59.10;;;4.40;99.90;;;;;;5091384;28;20723;-75
2022/12/25 17:49:36;;;;;;;132.30;56.37;;;4.40;99.90;;;;;;5091183;28;20199;-75
2022/12/25 17:52:06;;;;;;;127.83;57.23;;;4.40;99.90;;;;;;5091456;28;20203;-75
2022/12/25 17:54:38;;;;;;;150.33;64.10;;;4.40;99.90;;;;;;5091124;28;20593;-76